sensor_id;sensor_type;location;lat;lon;timestamp;P1;durP1;ratioP1;P2;durP2;ratioP2
20910;SDS011;10615;42.702;23.314;2022-12-26T00:01:00;54.63;;;32.38;;
20910;SDS011;10615;42.702;23.314;2022-12-26T00:02:04;53.45;;;31.63;;
20910;SDS011;10615;42.702;23.314;2022-12-26T00:03:04;50.33;;;31.63;;
20910;SDS011;10615;42.702;23.314;2022-12-26T00:04:05;52.58;;;31.90;;
20910;SDS011;10615;42.702;23.314;2022-12-26T00:05:06;48.15;;;31.88;;
20910;SDS011;10615;42.702;23.314;2022-12-26T00:06:10;51.63;;;31.65;;
20910;SDS011;10615;42.702;23.314;2022-12-26T00:07:12;53.58;;;31.90;;
20910;SDS011;10615;42.702;23.314;2022-12-26T00:08:12;49.33;;;31.52;;
20910;SDS011;10615;42.702;23.314;2022-12-26T00:09:13;52.88;;;32.33;;
20910;SDS011;10615;42.702;23.314;2022-12-26T00:10:14;49.55;;;31.40;;
20910;SDS011;10615;42.702;23.314;2022-12-26T00:11:15;54.58;;;32.30;;
20910;SDS011;10615;42.702;23.314;2022-12-26T00:12:16;51.38;;;31.05;;
20910;SDS011;10615;42.702;23.314;2022-12-26T00:13:17;54.83;;;31.95;;
20910;SDS011;10615;42.702;23.314;2022-12-26T00:14:18;47.35;;;29.63;;
20910;SDS011;10615;42.702;23.314;2022-12-26T00:15:18;54.03;;;31.45;;
20910;SDS011;10615;42.702;23.314;2022-12-26T00:16:19;54.65;;;32.38;;
20910;SDS011;10615;42.702;23.314;2022-12-26T00:17:20;51.15;;;31.95;;
20910;SDS011;10615;42.702;23.314;2022-12-26T00:18:21;46.58;;;30.63;;
20910;SDS011;10615;42.702;23.314;2022-12-26T00:19:21;52.28;;;32.40;;
20910;SDS011;10615;42.702;23.314;2022-12-26T00:20:22;48.75;;;31.98;;
20910;SDS011;10615;42.702;23.314;2022-12-26T00:21:23;51.30;;;31.42;;
20910;SDS011;10615;42.702;23.314;2022-12-26T00:22:26;57.25;;;31.35;;
20910;SDS011;10615;42.702;23.314;2022-12-26T00:23:27;49.90;;;32.53;;
20910;SDS011;10615;42.702;23.314;2022-12-26T00:24:27;51.53;;;32.70;;
20910;SDS011;10615;42.702;23.314;2022-12-26T00:25:28;51.20;;;32.78;;
20910;SDS011;10615;42.702;23.314;2022-12-26T00:26:30;51.70;;;33.45;;
20910;SDS011;10615;42.702;23.314;2022-12-26T00:27:32;52.17;;;33.00;;
20910;SDS011;10615;42.702;23.314;2022-12-26T00:28:33;52.00;;;32.70;;
20910;SDS011;10615;42.702;23.314;2022-12-26T00:29:34;53.55;;;33.60;;
20910;SDS011;10615;42.702;23.314;2022-12-26T00:30:36;51.55;;;32.22;;
20910;SDS011;10615;42.702;23.314;2022-12-26T00:31:37;52.17;;;33.15;;
20910;SDS011;10615;42.702;23.314;2022-12-26T00:32:37;50.05;;;33.35;;
20910;SDS011;10615;42.702;23.314;2022-12-26T00:33:38;50.53;;;32.25;;
20910;SDS011;10615;42.702;23.314;2022-12-26T00:34:39;49.97;;;31.20;;
20910;SDS011;10615;42.702;23.314;2022-12-26T00:35:40;53.00;;;31.83;;
20910;SDS011;10615;42.702;23.314;2022-12-26T00:36:40;50.80;;;32.63;;
20910;SDS011;10615;42.702;23.314;2022-12-26T00:37:41;46.83;;;31.13;;
20910;SDS011;10615;42.702;23.314;2022-12-26T00:38:42;49.78;;;31.92;;
20910;SDS011;10615;42.702;23.314;2022-12-26T00:39:43;52.50;;;31.52;;
20910;SDS011;10615;42.702;23.314;2022-12-26T00:40:44;46.83;;;30.33;;
20910;SDS011;10615;42.702;23.314;2022-12-26T00:41:44;45.10;;;29.85;;
20910;SDS011;10615;42.702;23.314;2022-12-26T00:42:45;57.78;;;31.48;;
20910;SDS011;10615;42.702;23.314;2022-12-26T00:43:46;55.90;;;33.40;;
20910;SDS011;10615;42.702;23.314;2022-12-26T00:44:47;54.85;;;33.25;;
20910;SDS011;10615;42.702;23.314;2022-12-26T00:45:48;60.40;;;34.92;;
20910;SDS011;10615;42.702;23.314;2022-12-26T00:46:48;62.05;;;34.88;;
20910;SDS011;10615;42.702;23.314;2022-12-26T00:47:49;56.10;;;33.83;;
20910;SDS011;10615;42.702;23.314;2022-12-26T00:48:49;62.33;;;36.35;;
20910;SDS011;10615;42.702;23.314;2022-12-26T00:49:50;64.15;;;34.25;;
20910;SDS011;10615;42.702;23.314;2022-12-26T00:50:51;62.67;;;36.35;;
20910;SDS011;10615;42.702;23.314;2022-12-26T00:51:51;57.58;;;34.38;;
20910;SDS011;10615;42.702;23.314;2022-12-26T00:52:52;59.67;;;33.50;;
20910;SDS011;10615;42.702;23.314;2022-12-26T00:53:54;58.20;;;34.40;;
20910;SDS011;10615;42.702;23.314;2022-12-26T00:54:54;59.53;;;34.47;;
20910;SDS011;10615;42.702;23.314;2022-12-26T00:55:55;55.22;;;32.60;;
20910;SDS011;10615;42.702;23.314;2022-12-26T00:56:56;55.50;;;33.90;;
20910;SDS011;10615;42.702;23.314;2022-12-26T00:57:57;54.65;;;32.88;;
20910;SDS011;10615;42.702;23.314;2022-12-26T00:58:57;59.05;;;33.10;;
20910;SDS011;10615;42.702;23.314;2022-12-26T00:59:58;56.38;;;33.08;;
20910;SDS011;10615;42.702;23.314;2022-12-26T01:01:09;51.45;;;32.83;;
20910;SDS011;10615;42.702;23.314;2022-12-26T01:02:16;53.95;;;33.10;;
20910;SDS011;10615;42.702;23.314;2022-12-26T01:03:35;55.22;;;33.17;;
20910;SDS011;10615;42.702;23.314;2022-12-26T01:04:36;54.70;;;33.63;;
20910;SDS011;10615;42.702;23.314;2022-12-26T01:05:43;52.83;;;30.88;;
20910;SDS011;10615;42.702;23.314;2022-12-26T01:06:48;48.17;;;30.58;;
20910;SDS011;10615;42.702;23.314;2022-12-26T01:07:49;51.28;;;31.65;;
20910;SDS011;10615;42.702;23.314;2022-12-26T01:08:50;48.90;;;31.25;;
20910;SDS011;10615;42.702;23.314;2022-12-26T01:09:51;50.90;;;30.20;;
20910;SDS011;10615;42.702;23.314;2022-12-26T01:10:52;48.45;;;29.85;;
20910;SDS011;10615;42.702;23.314;2022-12-26T01:11:52;48.42;;;29.40;;
20910;SDS011;10615;42.702;23.314;2022-12-26T01:12:53;45.72;;;28.33;;
20910;SDS011;10615;42.702;23.314;2022-12-26T01:13:53;45.50;;;29.05;;
20910;SDS011;10615;42.702;23.314;2022-12-26T01:14:54;43.17;;;27.77;;
20910;SDS011;10615;42.702;23.314;2022-12-26T01:15:55;43.83;;;28.10;;
20910;SDS011;10615;42.702;23.314;2022-12-26T01:16:56;43.88;;;28.15;;
20910;SDS011;10615;42.702;23.314;2022-12-26T01:17:57;42.20;;;27.40;;
20910;SDS011;10615;42.702;23.314;2022-12-26T01:18:58;41.75;;;26.52;;
20910;SDS011;10615;42.702;23.314;2022-12-26T01:19:59;42.97;;;26.77;;
20910;SDS011;10615;42.702;23.314;2022-12-26T01:21:01;43.08;;;26.58;;
20910;SDS011;10615;42.702;23.314;2022-12-26T01:22:04;41.95;;;26.73;;
20910;SDS011;10615;42.702;23.314;2022-12-26T01:23:05;39.03;;;25.75;;
20910;SDS011;10615;42.702;23.314;2022-12-26T01:24:06;41.22;;;25.05;;
20910;SDS011;10615;42.702;23.314;2022-12-26T01:25:06;37.20;;;23.70;;
20910;SDS011;10615;42.702;23.314;2022-12-26T01:26:07;36.25;;;23.42;;
20910;SDS011;10615;42.702;23.314;2022-12-26T01:27:08;37.30;;;24.15;;
20910;SDS011;10615;42.702;23.314;2022-12-26T01:28:09;40.40;;;24.67;;
20910;SDS011;10615;42.702;23.314;2022-12-26T01:29:09;36.35;;;23.13;;
20910;SDS011;10615;42.702;23.314;2022-12-26T01:30:10;37.40;;;23.40;;
20910;SDS011;10615;42.702;23.314;2022-12-26T01:31:11;34.75;;;22.48;;
20910;SDS011;10615;42.702;23.314;2022-12-26T01:32:12;35.47;;;22.90;;
20910;SDS011;10615;42.702;23.314;2022-12-26T01:33:12;34.45;;;22.98;;
20910;SDS011;10615;42.702;23.314;2022-12-26T01:34:13;37.35;;;23.50;;
20910;SDS011;10615;42.702;23.314;2022-12-26T01:35:13;34.95;;;22.30;;
20910;SDS011;10615;42.702;23.314;2022-12-26T01:36:14;33.95;;;22.80;;
20910;SDS011;10615;42.702;23.314;2022-12-26T01:37:15;39.70;;;23.67;;
20910;SDS011;10615;42.702;23.314;2022-12-26T01:38:16;39.10;;;23.25;;
20910;SDS011;10615;42.702;23.314;2022-12-26T01:39:17;36.33;;;23.33;;
20910;SDS011;10615;42.702;23.314;2022-12-26T01:40:18;35.25;;;22.23;;
20910;SDS011;10615;42.702;23.314;2022-12-26T01:41:18;35.28;;;23.13;;
20910;SDS011;10615;42.702;23.314;2022-12-26T01:42:20;40.17;;;23.27;;
20910;SDS011;10615;42.702;23.314;2022-12-26T01:43:22;35.53;;;22.35;;
20910;SDS011;10615;42.702;23.314;2022-12-26T01:45:58;33.10;;;22.00;;
20910;SDS011;10615;42.702;23.314;2022-12-26T01:46:58;33.60;;;21.52;;
20910;SDS011;10615;42.702;23.314;2022-12-26T01:48:03;34.50;;;22.95;;
20910;SDS011;10615;42.702;23.314;2022-12-26T01:49:15;35.40;;;23.35;;
20910;SDS011;10615;42.702;23.314;2022-12-26T01:50:23;35.45;;;22.20;;
20910;SDS011;10615;42.702;23.314;2022-12-26T01:51:49;36.33;;;21.55;;
20910;SDS011;10615;42.702;23.314;2022-12-26T01:52:56;33.17;;;22.15;;
20910;SDS011;10615;42.702;23.314;2022-12-26T01:54:00;33.10;;;22.83;;
20910;SDS011;10615;42.702;23.314;2022-12-26T01:55:04;36.38;;;22.25;;
20910;SDS011;10615;42.702;23.314;2022-12-26T01:56:10;34.58;;;22.63;;
20910;SDS011;10615;42.702;23.314;2022-12-26T01:57:22;32.60;;;21.20;;
20910;SDS011;10615;42.702;23.314;2022-12-26T01:58:30;35.47;;;21.70;;
20910;SDS011;10615;42.702;23.314;2022-12-26T01:59:35;33.08;;;21.38;;
20910;SDS011;10615;42.702;23.314;2022-12-26T02:00:39;33.25;;;21.42;;
20910;SDS011;10615;42.702;23.314;2022-12-26T02:01:40;35.20;;;21.40;;
20910;SDS011;10615;42.702;23.314;2022-12-26T02:02:42;33.72;;;22.17;;
20910;SDS011;10615;42.702;23.314;2022-12-26T02:04:07;37.22;;;22.05;;
20910;SDS011;10615;42.702;23.314;2022-12-26T02:05:29;38.83;;;22.70;;
20910;SDS011;10615;42.702;23.314;2022-12-26T02:06:33;34.83;;;21.63;;
20910;SDS011;10615;42.702;23.314;2022-12-26T02:07:36;34.05;;;22.15;;
20910;SDS011;10615;42.702;23.314;2022-12-26T02:08:39;35.97;;;22.02;;
20910;SDS011;10615;42.702;23.314;2022-12-26T02:09:40;31.73;;;20.90;;
20910;SDS011;10615;42.702;23.314;2022-12-26T02:10:49;33.20;;;22.90;;
20910;SDS011;10615;42.702;23.314;2022-12-26T02:12:01;34.15;;;21.80;;
20910;SDS011;10615;42.702;23.314;2022-12-26T02:13:23;31.13;;;21.15;;
20910;SDS011;10615;42.702;23.314;2022-12-26T02:14:24;35.72;;;22.05;;
20910;SDS011;10615;42.702;23.314;2022-12-26T02:15:26;32.03;;;21.13;;
20910;SDS011;10615;42.702;23.314;2022-12-26T02:16:27;34.35;;;22.25;;
20910;SDS011;10615;42.702;23.314;2022-12-26T02:17:29;35.97;;;23.48;;
20910;SDS011;10615;42.702;23.314;2022-12-26T02:18:29;37.05;;;21.60;;
20910;SDS011;10615;42.702;23.314;2022-12-26T02:27:52;36.13;;;22.88;;
20910;SDS011;10615;42.702;23.314;2022-12-26T02:48:06;39.22;;;24.13;;
20910;SDS011;10615;42.702;23.314;2022-12-26T02:49:20;40.30;;;23.67;;
20910;SDS011;10615;42.702;23.314;2022-12-26T02:50:30;38.25;;;22.10;;
20910;SDS011;10615;42.702;23.314;2022-12-26T02:54:55;32.47;;;19.05;;
20910;SDS011;10615;42.702;23.314;2022-12-26T02:55:58;37.65;;;23.02;;
20910;SDS011;10615;42.702;23.314;2022-12-26T02:57:28;30.83;;;19.02;;
20910;SDS011;10615;42.702;23.314;2022-12-26T03:00:15;27.13;;;15.98;;
20910;SDS011;10615;42.702;23.314;2022-12-26T03:01:37;29.88;;;17.63;;
20910;SDS011;10615;42.702;23.314;2022-12-26T03:04:35;20.98;;;12.93;;
20910;SDS011;10615;42.702;23.314;2022-12-26T03:06:03;20.02;;;13.30;;
20910;SDS011;10615;42.702;23.314;2022-12-26T03:07:31;20.80;;;12.38;;
20910;SDS011;10615;42.702;23.314;2022-12-26T03:08:55;23.20;;;12.15;;
20910;SDS011;10615;42.702;23.314;2022-12-26T03:10:22;23.42;;;12.35;;
20910;SDS011;10615;42.702;23.314;2022-12-26T03:11:54;19.17;;;11.60;;
20910;SDS011;10615;42.702;23.314;2022-12-26T03:13:25;18.00;;;11.70;;
20910;SDS011;10615;42.702;23.314;2022-12-26T03:14:34;20.27;;;12.00;;
20910;SDS011;10615;42.702;23.314;2022-12-26T03:17:25;19.52;;;12.38;;
20910;SDS011;10615;42.702;23.314;2022-12-26T03:18:29;19.27;;;13.02;;
20910;SDS011;10615;42.702;23.314;2022-12-26T03:19:33;19.45;;;12.18;;
20910;SDS011;10615;42.702;23.314;2022-12-26T03:20:37;20.20;;;12.57;;
20910;SDS011;10615;42.702;23.314;2022-12-26T03:21:42;18.38;;;12.15;;
20910;SDS011;10615;42.702;23.314;2022-12-26T03:22:49;19.25;;;12.60;;
20910;SDS011;10615;42.702;23.314;2022-12-26T03:23:56;19.83;;;12.40;;
20910;SDS011;10615;42.702;23.314;2022-12-26T03:24:58;20.63;;;12.85;;
20910;SDS011;10615;42.702;23.314;2022-12-26T03:26:20;22.67;;;13.13;;
20910;SDS011;10615;42.702;23.314;2022-12-26T03:27:38;20.73;;;12.48;;
20910;SDS011;10615;42.702;23.314;2022-12-26T03:28:39;22.80;;;12.57;;
20910;SDS011;10615;42.702;23.314;2022-12-26T03:29:41;20.35;;;13.27;;
20910;SDS011;10615;42.702;23.314;2022-12-26T03:31:02;19.33;;;13.23;;
20910;SDS011;10615;42.702;23.314;2022-12-26T03:32:07;19.73;;;12.73;;
20910;SDS011;10615;42.702;23.314;2022-12-26T03:33:10;21.23;;;13.20;;
20910;SDS011;10615;42.702;23.314;2022-12-26T03:34:30;22.75;;;13.27;;
20910;SDS011;10615;42.702;23.314;2022-12-26T03:35:32;22.67;;;13.35;;
20910;SDS011;10615;42.702;23.314;2022-12-26T03:37:55;21.90;;;14.13;;
20910;SDS011;10615;42.702;23.314;2022-12-26T03:41:08;19.17;;;12.98;;
20910;SDS011;10615;42.702;23.314;2022-12-26T03:48:40;22.15;;;14.20;;
20910;SDS011;10615;42.702;23.314;2022-12-26T03:50:14;19.98;;;13.63;;
20910;SDS011;10615;42.702;23.314;2022-12-26T03:51:49;20.75;;;13.65;;
20910;SDS011;10615;42.702;23.314;2022-12-26T03:53:23;22.60;;;13.90;;
20910;SDS011;10615;42.702;23.314;2022-12-26T03:54:51;21.95;;;13.77;;
20910;SDS011;10615;42.702;23.314;2022-12-26T03:57:47;23.35;;;14.38;;
20910;SDS011;10615;42.702;23.314;2022-12-26T03:59:12;23.50;;;14.02;;
20910;SDS011;10615;42.702;23.314;2022-12-26T04:00:35;21.65;;;13.77;;
20910;SDS011;10615;42.702;23.314;2022-12-26T04:03:18;24.85;;;14.90;;
20910;SDS011;10615;42.702;23.314;2022-12-26T04:04:40;20.70;;;14.10;;
20910;SDS011;10615;42.702;23.314;2022-12-26T04:06:01;22.65;;;14.10;;
20910;SDS011;10615;42.702;23.314;2022-12-26T04:07:24;21.88;;;14.40;;
20910;SDS011;10615;42.702;23.314;2022-12-26T04:09:22;23.92;;;14.98;;
20910;SDS011;10615;42.702;23.314;2022-12-26T04:10:45;23.50;;;14.70;;
20910;SDS011;10615;42.702;23.314;2022-12-26T04:12:10;25.65;;;16.88;;
20910;SDS011;10615;42.702;23.314;2022-12-26T04:13:48;29.30;;;17.10;;
20910;SDS011;10615;42.702;23.314;2022-12-26T04:15:36;31.65;;;20.60;;
20910;SDS011;10615;42.702;23.314;2022-12-26T04:17:00;37.92;;;22.80;;
20910;SDS011;10615;42.702;23.314;2022-12-26T04:18:32;37.67;;;23.52;;
20910;SDS011;10615;42.702;23.314;2022-12-26T04:20:02;34.35;;;21.15;;
20910;SDS011;10615;42.702;23.314;2022-12-26T04:21:32;35.42;;;22.05;;
20910;SDS011;10615;42.702;23.314;2022-12-26T04:23:08;37.90;;;22.95;;
20910;SDS011;10615;42.702;23.314;2022-12-26T04:24:38;41.38;;;24.33;;
20910;SDS011;10615;42.702;23.314;2022-12-26T04:26:07;36.35;;;23.17;;
20910;SDS011;10615;42.702;23.314;2022-12-26T04:27:48;37.38;;;23.98;;
20910;SDS011;10615;42.702;23.314;2022-12-26T04:29:07;36.38;;;24.73;;
20910;SDS011;10615;42.702;23.314;2022-12-26T04:30:26;37.80;;;24.08;;
20910;SDS011;10615;42.702;23.314;2022-12-26T04:31:58;40.28;;;24.60;;
20910;SDS011;10615;42.702;23.314;2022-12-26T04:33:28;39.15;;;25.40;;
20910;SDS011;10615;42.702;23.314;2022-12-26T04:34:56;40.42;;;25.17;;
20910;SDS011;10615;42.702;23.314;2022-12-26T04:36:31;40.03;;;25.30;;
20910;SDS011;10615;42.702;23.314;2022-12-26T04:37:58;41.33;;;25.98;;
20910;SDS011;10615;42.702;23.314;2022-12-26T04:39:20;37.28;;;24.20;;
20910;SDS011;10615;42.702;23.314;2022-12-26T04:40:45;43.28;;;26.00;;
20910;SDS011;10615;42.702;23.314;2022-12-26T04:42:07;42.70;;;26.27;;
20910;SDS011;10615;42.702;23.314;2022-12-26T04:43:27;43.40;;;26.67;;
20910;SDS011;10615;42.702;23.314;2022-12-26T04:44:48;42.45;;;27.92;;
20910;SDS011;10615;42.702;23.314;2022-12-26T04:45:50;50.75;;;32.47;;
20910;SDS011;10615;42.702;23.314;2022-12-26T04:46:52;77.53;;;48.63;;
20910;SDS011;10615;42.702;23.314;2022-12-26T04:47:54;75.90;;;51.05;;
20910;SDS011;10615;42.702;23.314;2022-12-26T04:49:14;80.13;;;50.67;;
20910;SDS011;10615;42.702;23.314;2022-12-26T04:50:35;56.85;;;36.35;;
20910;SDS011;10615;42.702;23.314;2022-12-26T04:51:36;54.65;;;36.22;;
20910;SDS011;10615;42.702;23.314;2022-12-26T04:52:40;54.42;;;35.58;;
20910;SDS011;10615;42.702;23.314;2022-12-26T04:53:59;49.42;;;31.90;;
20910;SDS011;10615;42.702;23.314;2022-12-26T04:55:00;49.20;;;32.15;;
20910;SDS011;10615;42.702;23.314;2022-12-26T04:56:01;54.70;;;34.47;;
20910;SDS011;10615;42.702;23.314;2022-12-26T04:57:02;54.03;;;35.67;;
20910;SDS011;10615;42.702;23.314;2022-12-26T04:58:03;50.80;;;33.83;;
20910;SDS011;10615;42.702;23.314;2022-12-26T04:59:04;51.78;;;32.70;;
20910;SDS011;10615;42.702;23.314;2022-12-26T05:00:05;44.78;;;30.77;;
20910;SDS011;10615;42.702;23.314;2022-12-26T05:01:06;50.05;;;30.25;;
20910;SDS011;10615;42.702;23.314;2022-12-26T05:02:25;40.40;;;28.33;;
20910;SDS011;10615;42.702;23.314;2022-12-26T05:03:44;42.05;;;26.80;;
20910;SDS011;10615;42.702;23.314;2022-12-26T05:05:03;38.80;;;26.13;;
20910;SDS011;10615;42.702;23.314;2022-12-26T05:06:22;38.00;;;25.40;;
20910;SDS011;10615;42.702;23.314;2022-12-26T05:07:41;43.47;;;26.95;;
20910;SDS011;10615;42.702;23.314;2022-12-26T05:09:00;41.70;;;27.30;;
20910;SDS011;10615;42.702;23.314;2022-12-26T05:10:21;37.35;;;26.17;;
20910;SDS011;10615;42.702;23.314;2022-12-26T05:11:24;43.28;;;27.10;;
20910;SDS011;10615;42.702;23.314;2022-12-26T05:12:25;44.83;;;27.40;;
20910;SDS011;10615;42.702;23.314;2022-12-26T05:13:26;37.90;;;26.00;;
20910;SDS011;10615;42.702;23.314;2022-12-26T05:14:26;39.10;;;25.35;;
20910;SDS011;10615;42.702;23.314;2022-12-26T05:15:28;39.30;;;25.98;;
20910;SDS011;10615;42.702;23.314;2022-12-26T05:16:48;38.30;;;25.77;;
20910;SDS011;10615;42.702;23.314;2022-12-26T05:18:08;41.33;;;26.27;;
20910;SDS011;10615;42.702;23.314;2022-12-26T05:19:27;45.75;;;28.48;;
20910;SDS011;10615;42.702;23.314;2022-12-26T05:20:46;40.00;;;26.02;;
20910;SDS011;10615;42.702;23.314;2022-12-26T05:21:49;38.25;;;26.90;;
20910;SDS011;10615;42.702;23.314;2022-12-26T05:23:14;43.20;;;26.88;;
20910;SDS011;10615;42.702;23.314;2022-12-26T05:24:40;42.72;;;25.65;;
20910;SDS011;10615;42.702;23.314;2022-12-26T05:26:00;42.72;;;24.98;;
20910;SDS011;10615;42.702;23.314;2022-12-26T05:27:19;48.60;;;32.78;;
20910;SDS011;10615;42.702;23.314;2022-12-26T05:28:39;42.30;;;25.88;;
20910;SDS011;10615;42.702;23.314;2022-12-26T05:29:42;38.10;;;25.25;;
20910;SDS011;10615;42.702;23.314;2022-12-26T05:30:43;37.60;;;25.48;;
20910;SDS011;10615;42.702;23.314;2022-12-26T05:31:43;39.22;;;24.08;;
20910;SDS011;10615;42.702;23.314;2022-12-26T05:32:44;35.50;;;23.63;;
20910;SDS011;10615;42.702;23.314;2022-12-26T05:34:04;34.97;;;23.13;;
20910;SDS011;10615;42.702;23.314;2022-12-26T05:35:06;36.90;;;25.02;;
20910;SDS011;10615;42.702;23.314;2022-12-26T05:36:07;35.63;;;23.75;;
20910;SDS011;10615;42.702;23.314;2022-12-26T05:37:09;36.60;;;23.23;;
20910;SDS011;10615;42.702;23.314;2022-12-26T05:38:09;35.58;;;23.67;;
20910;SDS011;10615;42.702;23.314;2022-12-26T05:39:10;35.85;;;24.25;;
20910;SDS011;10615;42.702;23.314;2022-12-26T05:40:11;37.58;;;25.10;;
20910;SDS011;10615;42.702;23.314;2022-12-26T05:41:12;37.22;;;24.85;;
20910;SDS011;10615;42.702;23.314;2022-12-26T05:42:13;39.15;;;25.85;;
20910;SDS011;10615;42.702;23.314;2022-12-26T05:43:13;40.63;;;25.45;;
20910;SDS011;10615;42.702;23.314;2022-12-26T05:44:14;40.58;;;26.35;;
20910;SDS011;10615;42.702;23.314;2022-12-26T05:45:15;38.22;;;25.27;;
20910;SDS011;10615;42.702;23.314;2022-12-26T05:46:15;40.90;;;25.55;;
20910;SDS011;10615;42.702;23.314;2022-12-26T05:47:16;41.92;;;25.92;;
20910;SDS011;10615;42.702;23.314;2022-12-26T05:48:17;41.45;;;26.70;;
20910;SDS011;10615;42.702;23.314;2022-12-26T05:49:17;39.22;;;24.15;;
20910;SDS011;10615;42.702;23.314;2022-12-26T05:50:18;45.78;;;27.27;;
20910;SDS011;10615;42.702;23.314;2022-12-26T05:51:19;40.70;;;26.13;;
20910;SDS011;10615;42.702;23.314;2022-12-26T05:52:19;39.08;;;26.70;;
20910;SDS011;10615;42.702;23.314;2022-12-26T05:53:20;39.78;;;26.23;;
20910;SDS011;10615;42.702;23.314;2022-12-26T05:54:20;39.78;;;26.77;;
20910;SDS011;10615;42.702;23.314;2022-12-26T05:55:21;42.90;;;26.70;;
20910;SDS011;10615;42.702;23.314;2022-12-26T05:56:23;38.30;;;26.30;;
20910;SDS011;10615;42.702;23.314;2022-12-26T05:57:24;39.22;;;25.83;;
20910;SDS011;10615;42.702;23.314;2022-12-26T05:58:24;38.10;;;27.17;;
20910;SDS011;10615;42.702;23.314;2022-12-26T05:59:25;41.65;;;28.23;;
20910;SDS011;10615;42.702;23.314;2022-12-26T06:00:26;40.78;;;28.70;;
20910;SDS011;10615;42.702;23.314;2022-12-26T06:01:29;41.45;;;28.20;;
20910;SDS011;10615;42.702;23.314;2022-12-26T06:02:29;43.45;;;27.13;;
20910;SDS011;10615;42.702;23.314;2022-12-26T06:03:30;43.70;;;26.33;;
20910;SDS011;10615;42.702;23.314;2022-12-26T06:04:32;41.17;;;26.75;;
20910;SDS011;10615;42.702;23.314;2022-12-26T06:05:34;45.00;;;27.63;;
20910;SDS011;10615;42.702;23.314;2022-12-26T06:06:34;50.47;;;30.65;;
20910;SDS011;10615;42.702;23.314;2022-12-26T06:07:35;48.50;;;30.33;;
20910;SDS011;10615;42.702;23.314;2022-12-26T06:08:36;50.83;;;30.88;;
20910;SDS011;10615;42.702;23.314;2022-12-26T06:09:37;43.38;;;28.48;;
20910;SDS011;10615;42.702;23.314;2022-12-26T06:10:37;50.63;;;29.65;;
20910;SDS011;10615;42.702;23.314;2022-12-26T06:11:38;50.40;;;29.95;;
20910;SDS011;10615;42.702;23.314;2022-12-26T06:12:39;49.38;;;30.98;;
20910;SDS011;10615;42.702;23.314;2022-12-26T06:13:39;61.00;;;38.70;;
20910;SDS011;10615;42.702;23.314;2022-12-26T06:14:40;55.30;;;35.90;;
20910;SDS011;10615;42.702;23.314;2022-12-26T06:15:41;50.95;;;33.72;;
20910;SDS011;10615;42.702;23.314;2022-12-26T06:16:42;52.88;;;35.42;;
20910;SDS011;10615;42.702;23.314;2022-12-26T06:17:43;54.55;;;35.90;;
20910;SDS011;10615;42.702;23.314;2022-12-26T06:18:44;46.17;;;31.95;;
20910;SDS011;10615;42.702;23.314;2022-12-26T06:19:45;51.05;;;31.13;;
20910;SDS011;10615;42.702;23.314;2022-12-26T06:20:45;45.47;;;29.42;;
20910;SDS011;10615;42.702;23.314;2022-12-26T06:21:46;50.30;;;31.23;;
20910;SDS011;10615;42.702;23.314;2022-12-26T06:22:47;50.78;;;32.00;;
20910;SDS011;10615;42.702;23.314;2022-12-26T06:23:48;51.20;;;35.30;;
20910;SDS011;10615;42.702;23.314;2022-12-26T06:24:49;48.17;;;33.75;;
20910;SDS011;10615;42.702;23.314;2022-12-26T06:25:53;41.25;;;28.88;;
20910;SDS011;10615;42.702;23.314;2022-12-26T06:26:55;46.63;;;29.88;;
20910;SDS011;10615;42.702;23.314;2022-12-26T06:27:55;43.03;;;29.55;;
20910;SDS011;10615;42.702;23.314;2022-12-26T06:28:56;46.55;;;29.52;;
20910;SDS011;10615;42.702;23.314;2022-12-26T06:29:57;43.47;;;27.67;;
20910;SDS011;10615;42.702;23.314;2022-12-26T06:31:04;38.95;;;27.65;;
20910;SDS011;10615;42.702;23.314;2022-12-26T06:32:07;42.35;;;28.33;;
20910;SDS011;10615;42.702;23.314;2022-12-26T06:33:07;42.10;;;27.08;;
20910;SDS011;10615;42.702;23.314;2022-12-26T06:34:08;49.58;;;28.08;;
20910;SDS011;10615;42.702;23.314;2022-12-26T06:35:11;42.03;;;26.77;;
20910;SDS011;10615;42.702;23.314;2022-12-26T06:36:13;40.00;;;26.05;;
20910;SDS011;10615;42.702;23.314;2022-12-26T06:37:21;39.65;;;25.33;;
20910;SDS011;10615;42.702;23.314;2022-12-26T06:38:22;42.10;;;28.23;;
20910;SDS011;10615;42.702;23.314;2022-12-26T06:39:22;44.88;;;28.33;;
20910;SDS011;10615;42.702;23.314;2022-12-26T06:40:23;34.75;;;25.77;;
20910;SDS011;10615;42.702;23.314;2022-12-26T06:41:24;37.63;;;26.48;;
20910;SDS011;10615;42.702;23.314;2022-12-26T06:42:25;39.97;;;27.17;;
20910;SDS011;10615;42.702;23.314;2022-12-26T06:43:25;35.72;;;25.35;;
20910;SDS011;10615;42.702;23.314;2022-12-26T06:44:26;37.17;;;25.77;;
20910;SDS011;10615;42.702;23.314;2022-12-26T06:45:27;37.13;;;26.88;;
20910;SDS011;10615;42.702;23.314;2022-12-26T06:46:27;45.95;;;30.40;;
20910;SDS011;10615;42.702;23.314;2022-12-26T06:47:28;44.17;;;30.05;;
20910;SDS011;10615;42.702;23.314;2022-12-26T06:48:29;41.17;;;29.45;;
20910;SDS011;10615;42.702;23.314;2022-12-26T06:49:30;43.33;;;30.02;;
20910;SDS011;10615;42.702;23.314;2022-12-26T06:50:31;43.67;;;30.65;;
20910;SDS011;10615;42.702;23.314;2022-12-26T06:51:34;41.33;;;29.33;;
20910;SDS011;10615;42.702;23.314;2022-12-26T06:52:35;42.17;;;28.55;;
20910;SDS011;10615;42.702;23.314;2022-12-26T06:53:35;36.25;;;28.42;;
20910;SDS011;10615;42.702;23.314;2022-12-26T06:54:36;35.92;;;25.63;;
20910;SDS011;10615;42.702;23.314;2022-12-26T06:55:37;34.30;;;22.67;;
20910;SDS011;10615;42.702;23.314;2022-12-26T06:56:37;35.03;;;23.65;;
20910;SDS011;10615;42.702;23.314;2022-12-26T06:57:38;31.33;;;23.30;;
20910;SDS011;10615;42.702;23.314;2022-12-26T06:58:39;33.33;;;24.15;;
20910;SDS011;10615;42.702;23.314;2022-12-26T06:59:40;34.33;;;24.05;;
20910;SDS011;10615;42.702;23.314;2022-12-26T07:00:41;32.65;;;22.65;;
20910;SDS011;10615;42.702;23.314;2022-12-26T07:01:41;32.72;;;23.38;;
20910;SDS011;10615;42.702;23.314;2022-12-26T07:02:42;28.88;;;22.13;;
20910;SDS011;10615;42.702;23.314;2022-12-26T07:03:43;34.70;;;23.38;;
20910;SDS011;10615;42.702;23.314;2022-12-26T07:04:44;34.75;;;22.90;;
20910;SDS011;10615;42.702;23.314;2022-12-26T07:05:45;30.92;;;22.48;;
20910;SDS011;10615;42.702;23.314;2022-12-26T07:06:46;33.67;;;22.67;;
20910;SDS011;10615;42.702;23.314;2022-12-26T07:07:50;32.83;;;23.27;;
20910;SDS011;10615;42.702;23.314;2022-12-26T07:08:52;32.58;;;21.40;;
20910;SDS011;10615;42.702;23.314;2022-12-26T07:09:55;35.60;;;21.92;;
20910;SDS011;10615;42.702;23.314;2022-12-26T07:10:56;29.52;;;21.85;;
20910;SDS011;10615;42.702;23.314;2022-12-26T07:11:56;32.55;;;22.67;;
20910;SDS011;10615;42.702;23.314;2022-12-26T07:12:57;31.77;;;23.13;;
20910;SDS011;10615;42.702;23.314;2022-12-26T07:13:58;34.53;;;23.63;;
20910;SDS011;10615;42.702;23.314;2022-12-26T07:14:59;31.95;;;22.17;;
20910;SDS011;10615;42.702;23.314;2022-12-26T07:15:59;34.45;;;23.23;;